Time;durP1;ratioP1;P1;durP2;ratioP2;P2;SDS_P1;SDS_P2;PMS_P1;PMS_P2;Temp;Humidity;BMP_temperature;BMP_pressure;BME280_temperature;BME280_humidity;BME280_pressure;Samples;Min_cycle;Max_cycle;Signal;HPM_P1;HPM_P2
2023/03/26 00:00:29;;;;;;;12.73;5.35;;;;;;;8.68;100.00;100650.00;10374708;28;20026;-81
2023/03/26 00:05:31;;;;;;;23.77;6.00;;;;;;;8.69;100.00;100654.38;10373822;28;20498;-80
2023/03/26 00:10:32;;;;;;;12.57;3.65;;;;;;;8.66;100.00;100649.38;10373027;28;20036;-81
2023/03/26 00:15:33;;;;;;;16.52;5.35;;;;;;;8.63;100.00;100647.03;10375815;28;20045;-81
2023/03/26 00:20:33;;;;;;;26.65;5.95;;;;;;;8.60;100.00;100632.88;10397226;28;20117;-80
2023/03/26 00:25:38;;;;;;;20.73;6.75;;;;;;;8.63;100.00;100620.88;10382803;28;20034;-80
2023/03/26 00:30:40;;;;;;;29.20;8.65;;;;;;;8.61;100.00;100620.22;10377937;28;20034;-81
2023/03/26 00:35:42;;;;;;;26.23;8.52;;;;;;;8.57;100.00;100618.94;10380408;28;20033;-81
2023/03/26 00:40:46;;;;;;;44.15;9.10;;;;;;;8.52;100.00;100606.03;10378802;28;20030;-80
2023/03/26 00:45:48;;;;;;;39.08;8.43;;;;;;;8.53;100.00;100602.31;10395486;28;20064;-81
2023/03/26 00:50:48;;;;;;;31.33;9.52;;;;;;;8.48;100.00;100593.09;10379553;28;20037;-81
2023/03/26 00:55:49;;;;;;;42.45;10.23;;;;;;;8.48;100.00;100580.44;10393900;28;20034;-81
2023/03/26 01:00:56;;;;;;;37.63;10.20;;;;;;;8.36;100.00;100574.69;10377941;28;20034;-80
2023/03/26 01:05:57;;;;;;;;;;;;;;;8.16;100.00;100581.72;10394442;28;20071;-80
2023/03/26 01:11:04;;;;;;;25.50;7.75;;;;;;;8.01;100.00;100572.81;10378222;28;20007;-80
2023/03/26 01:16:06;;;;;;;29.10;8.77;;;;;;;7.87;100.00;100561.88;10391946;28;20026;-80
2023/03/26 01:21:08;;;;;;;42.67;9.88;;;;;;;7.79;100.00;100574.63;10377221;28;20060;-80
2023/03/26 01:26:30;;;;;;;40.95;9.65;;;;;;;7.67;100.00;100558.94;10391751;28;20034;-81
2023/03/26 01:31:37;;;;;;;37.05;9.52;;;;;;;7.53;100.00;100538.22;10376078;28;20088;-80
2023/03/26 01:36:41;;;;;;;;;;;;;;;7.53;100.00;100537.38;10376339;28;20029;-80
2023/03/26 01:41:44;;;;;;;37.80;11.27;;;;;;;7.42;100.00;100531.44;10377045;28;19917;-80
2023/03/26 01:46:46;;;;;;;38.38;9.40;;;;;;;7.28;100.00;100529.59;10375660;28;20038;-81
2023/03/26 01:51:46;;;;;;;28.83;8.10;;;;;;;7.28;100.00;100515.28;10391230;28;20038;-80
2023/03/26 01:57:14;;;;;;;41.33;10.00;;;;;;;7.40;100.00;100516.47;10377045;28;20034;-80
2023/03/26 02:02:50;;;;;;;54.42;11.80;;;;;;;7.40;100.00;100511.06;10376448;28;20029;-81
2023/03/26 02:08:10;;;;;;;41.53;11.63;;;;;;;7.52;100.00;100508.75;10389817;28;20045;-81
2023/03/26 02:13:11;;;;;;;29.70;9.93;;;;;;;7.84;100.00;100497.53;10375715;28;20033;-81
2023/03/26 02:18:12;;;;;;;48.47;11.82;;;;;;;8.08;100.00;100499.06;10392171;28;20480;-81
2023/03/26 02:23:12;;;;;;;49.00;9.73;;;;;;;8.13;100.00;100485.84;10383250;28;20111;-81
2023/03/26 02:28:13;;;;;;;57.22;15.43;;;;;;;8.18;100.00;100481.75;10380158;28;20029;-81
2023/03/26 02:33:14;;;;;;;49.88;10.88;;;;;;;8.20;100.00;100476.97;10378076;28;20038;-80
2023/03/26 02:38:14;;;;;;;51.15;12.82;;;;;;;8.14;100.00;100457.03;10379926;28;20038;-81
2023/03/26 02:43:15;;;;;;;37.88;12.30;;;;;;;8.23;100.00;100455.88;10375244;28;20043;-81
2023/03/26 02:48:15;;;;;;;29.35;10.73;;;;;;;8.15;100.00;100451.41;10374191;28;20040;-81
2023/03/26 02:53:15;;;;;;;38.17;10.40;;;;;;;8.19;100.00;100451.03;10373419;28;20052;-80
2023/03/26 02:58:16;;;;;;;59.75;10.90;;;;;;;8.21;100.00;100449.81;10374316;28;20111;-80
2023/03/26 03:03:16;;;;;;;33.28;8.90;;;;;;;8.16;100.00;100438.78;10389560;28;20371;-81
2023/03/26 03:08:18;;;;;;;41.78;9.98;;;;;;;8.10;100.00;100443.09;10374761;28;20045;-80
2023/03/26 03:13:18;;;;;;;35.08;7.57;;;;;;;8.05;100.00;100439.31;10373604;28;20033;-81
2023/03/26 03:18:19;;;;;;;37.40;9.65;;;;;;;8.06;100.00;100433.69;10372899;28;20034;-81
2023/03/26 03:23:19;;;;;;;29.50;8.88;;;;;;;8.03;100.00;100420.59;10390323;28;20373;-80
2023/03/26 03:28:20;;;;;;;36.85;11.75;;;;;;;8.03;100.00;100419.78;10374798;28;20064;-80
2023/03/26 03:33:20;;;;;;;47.08;10.05;;;;;;;8.05;100.00;100423.94;10377092;28;20377;-81
2023/03/26 03:38:21;;;;;;;28.80;10.95;;;;;;;8.10;100.00;100405.34;10390550;28;20073;-81
2023/03/26 03:43:21;;;;;;;32.88;8.98;;;;;;;8.04;100.00;100394.47;10375478;28;20041;-81
2023/03/26 03:48:22;;;;;;;36.13;9.73;;;;;;;8.01;100.00;100387.63;10391482;28;20037;-81
2023/03/26 03:53:24;;;;;;;23.45;9.25;;;;;;;8.00;100.00;100387.78;10382843;28;20454;-81
2023/03/26 03:58:26;;;;;;;34.40;7.13;;;;;;;8.03;100.00;100385.53;10382518;28;20478;-81
2023/03/26 04:03:27;;;;;;;30.77;9.18;;;;;;;8.01;100.00;100379.53;10398850;28;20117;-80
2023/03/26 04:08:27;;;;;;;40.53;9.95;;;;;;;8.02;100.00;100373.09;10383900;28;20476;-81
2023/03/26 04:13:28;;;;;;;28.58;9.25;;;;;;;8.03;100.00;100363.97;10384286;28;20033;-81
2023/03/26 04:18:31;;;;;;;26.95;9.02;;;;;;;7.99;100.00;100359.19;10382292;28;20120;-80
2023/03/26 04:23:31;;;;;;;28.25;8.55;;;;;;;7.99;100.00;100354.63;10383151;28;20133;-81
2023/03/26 04:28:41;;;;;;;27.85;7.57;;;;;;;7.96;100.00;100338.00;10382506;28;20129;-81
2023/03/26 04:33:45;;;;;;;34.58;7.65;;;;;;;7.95;100.00;100337.16;10398557;28;20160;-81
2023/03/26 04:38:48;;;;;;;36.35;9.52;;;;;;;7.86;100.00;100327.53;10383710;28;20036;-80
2023/03/26 04:43:49;;;;;;;29.40;7.95;;;;;;;7.82;100.00;100310.94;10381952;28;20057;-81
2023/03/26 04:48:50;;;;;;;26.25;9.23;;;;;;;7.85;100.00;100301.63;10383229;28;20040;-80
2023/03/26 04:53:58;;;;;;;31.55;9.25;;;;;;;7.84;100.00;100292.69;10384557;28;20521;-81
2023/03/26 04:58:59;;;;;;;31.92;10.10;;;;;;;7.85;100.00;100290.84;10395230;28;20080;-81
2023/03/26 05:04:00;;;;;;;39.53;10.25;;;;;;;7.84;100.00;100281.91;10378753;28;20462;-80
2023/03/26 05:09:03;;;;;;;29.92;8.55;;;;;;;7.82;100.00;100266.97;10381022;28;20084;-80
2023/03/26 05:14:03;;;;;;;27.60;9.02;;;;;;;7.85;100.00;100261.19;10379345;28;20026;-81
2023/03/26 05:19:04;;;;;;;44.60;10.30;;;;;;;7.83;100.00;100247.06;10377888;28;20034;-81
2023/03/26 05:24:05;;;;;;;29.02;9.30;;;;;;;7.86;100.00;100252.06;10394552;28;20061;-81
2023/03/26 05:29:05;;;;;;;21.85;7.90;;;;;;;7.87;100.00;100243.75;10379565;28;20052;-81
2023/03/26 05:34:06;;;;;;;30.95;7.63;;;;;;;7.84;100.00;100246.03;10379342;28;20034;-81
2023/03/26 05:39:07;;;;;;;44.08;9.57;;;;;;;7.82;100.00;100243.53;10378985;28;20033;-81
2023/03/26 05:44:07;;;;;;;32.65;9.50;;;;;;;7.83;100.00;100239.81;10377975;28;20088;-81
2023/03/26 05:49:08;;;;;;;29.42;7.78;;;;;;;7.79;100.00;100240.41;10360857;28;20145;-81
2023/03/26 05:54:08;;;;;;;11.40;6.60;;;;;;;7.76;100.00;100235.41;10393626;28;20475;-81
2023/03/26 05:59:09;;;;;;;32.17;9.05;;;;;;;7.71;100.00;100232.44;10378685;28;20030;-82
2023/03/26 06:04:11;;;;;;;31.00;7.30;;;;;;;7.74;100.00;100229.38;10379271;28;20037;-82
2023/03/26 06:09:12;;;;;;;33.72;8.82;;;;;;;7.76;100.00;100221.94;10376790;28;20527;-82
2023/03/26 06:14:12;;;;;;;24.52;7.03;;;;;;;7.75;100.00;100222.94;10377179;28;20084;-82
2023/03/26 06:19:12;;;;;;;38.45;9.75;;;;;;;7.75;100.00;100220.25;10380692;28;20029;-81
2023/03/26 06:24:15;;;;;;;33.55;8.45;;;;;;;7.79;100.00;100218.84;10379133;28;20058;-81
2023/03/26 06:29:15;;;;;;;17.95;7.28;;;;;;;7.74;100.00;100211.31;10375478;28;20385;-81
2023/03/26 06:34:16;;;;;;;27.63;10.38;;;;;;;7.74;100.00;100210.50;10376055;28;20038;-81
2023/03/26 06:39:16;;;;;;;30.33;8.77;;;;;;;7.69;100.00;100208.41;10375416;28;20116;-81
2023/03/26 06:44:16;;;;;;;20.15;8.57;;;;;;;7.73;100.00;100215.06;10373144;28;20042;-83
2023/03/26 06:49:17;;;;;;;39.85;11.85;;;;;;;7.69;100.00;100205.72;10375137;28;20073;-80
2023/03/26 06:54:17;;;;;;;33.53;10.32;;;;;;;7.70;100.00;100207.38;10374684;28;20030;-79
2023/03/26 06:59:18;;;;;;;40.67;12.00;;;;;;;7.76;100.00;100213.84;10374703;28;20037;-79
2023/03/26 07:04:18;;;;;;;29.13;12.48;;;;;;;7.72;100.00;100212.53;10374351;28;20466;-78
2023/03/26 07:09:19;;;;;;;29.23;11.13;;;;;;;7.69;100.00;100208.41;10375408;28;20434;-81
2023/03/26 07:14:19;;;;;;;40.28;12.35;;;;;;;7.64;100.00;100200.06;10374187;28;20034;-80
2023/03/26 07:19:20;;;;;;;24.58;10.45;;;;;;;7.66;100.00;100209.63;10375353;28;20156;-80
2023/03/26 07:24:20;;;;;;;26.58;10.52;;;;;;;7.72;100.00;100207.16;10375551;28;20054;-80
2023/03/26 07:29:44;;;;;;;20.48;10.32;;;;;;;7.75;100.00;100206.75;10322082;28;20061;-77
2023/03/26 07:35:07;;;;;;;26.45;13.10;;;;;;;7.75;100.00;100207.59;10396631;28;20068;-77
2023/03/26 07:40:35;;;;;;;33.90;10.45;;;;;;;7.84;100.00;100201.03;10382569;28;20038;-75
2023/03/26 07:45:40;;;;;;;20.38;9.63;;;;;;;7.93;100.00;100207.09;10381099;28;20033;-75
2023/03/26 07:50:41;;;;;;;26.60;11.52;;;;;;;7.98;100.00;100196.56;10363420;28;20517;-75
2023/03/26 07:56:20;;;;;;;0.40;0.40;;;;;;;7.90;100.00;100202.94;10381438;28;20124;-74
2023/03/26 08:01:51;;;;;;;1.60;1.50;;;;;;;7.81;100.00;100195.19;10381412;28;20042;-77
2023/03/26 08:07:24;;;;;;;1.92;1.85;;;;;;;7.80;100.00;100193.53;10380361;28;20056;-76
2023/03/26 08:12:55;;;;;;;0.40;0.40;;;;;;;7.82;100.00;100197.72;10376580;28;20030;-79
2023/03/26 08:18:14;;;;;;;0.30;0.30;;;;;;;7.85;100.00;100197.31;10378978;28;20390;-80
2023/03/26 08:23:37;;;;;;;0.60;0.60;;;;;;;7.86;100.00;100198.97;10379024;28;20053;-78
2023/03/26 08:29:02;;;;;;;1.80;1.70;;;;;;;7.88;100.00;100199.63;10380827;28;20342;-78
2023/03/26 08:34:03;;;;;;;0.40;0.40;;;;;;;7.96;100.00;100195.94;10378685;28;20034;-80
2023/03/26 08:39:04;;;;;;;0.50;0.50;;;;;;;7.93;100.00;100197.16;10394645;28;20446;-79
2023/03/26 08:44:22;;;;;;;2.28;2.17;;;;;;;7.99;100.00;100200.94;10380728;28;20076;-79
2023/03/26 08:49:48;;;;;;;0.47;0.47;;;;;;;7.91;100.00;100207.31;10379099;28;20424;-79
2023/03/26 08:55:13;;;;;;;1.73;1.73;;;;;;;7.90;100.00;100207.50;10378553;28;20463;-77
2023/03/26 09:00:23;;;;;;;0.40;0.40;;;;;;;7.89;100.00;100205.84;10377039;28;20450;-77
2023/03/26 09:05:51;;;;;;;0.50;0.50;;;;;;;8.02;100.00;100202.41;10378075;28;20117;-80
2023/03/26 09:11:27;;;;;;;0.40;0.40;;;;;;;8.28;100.00;100199.03;10378169;28;20462;-80
2023/03/26 09:17:18;;;;;;;0.47;0.47;;;;;;;8.25;100.00;100200.25;10376473;28;20100;-80
2023/03/26 09:22:55;;;;;;;0.82;0.82;;;;;;;8.24;100.00;100217.47;10370168;28;20056;-78
2023/03/26 09:28:14;;;;;;;2.22;2.08;;;;;;;8.16;100.00;100202.25;10393926;28;20032;-79
2023/03/26 09:33:30;;;;;;;0.50;0.50;;;;;;;8.26;100.00;100210.00;10391547;28;20371;-77
2023/03/26 09:38:50;;;;;;;0.60;0.60;;;;;;;8.34;100.00;100219.81;10377760;28;20034;-76
2023/03/26 09:43:54;;;;;;;0.55;0.55;;;;;;;8.31;100.00;100223.72;10377821;28;20378;-76
2023/03/26 09:49:06;;;;;;;1.13;1.13;;;;;;;8.17;100.00;100222.00;10375700;28;20065;-79
2023/03/26 09:54:13;;;;;;;1.02;1.02;;;;;;;7.95;100.00;100239.28;10377520;28;20049;-79
2023/03/26 09:59:38;;;;;;;0.45;0.45;;;;;;;7.86;100.00;100236.72;10391149;28;20171;-77
2023/03/26 10:05:03;;;;;;;3.00;2.85;;;;;;;7.62;100.00;100248.75;10376184;28;20030;-78
2023/03/26 10:10:18;;;;;;;28.52;5.65;;;;;;;7.48;100.00;100265.84;10374683;28;20041;-78
2023/03/26 10:15:50;;;;;;;3.05;2.95;;;;;;;7.77;100.00;100259.44;10390981;28;20462;-80
2023/03/26 10:21:04;;;;;;;2.70;2.60;;;;;;;7.67;100.00;100264.34;10391174;28;20145;-80
2023/03/26 10:26:16;;;;;;;9.75;3.53;;;;;;;7.80;100.00;100264.44;10373946;28;20121;-80
2023/03/26 10:31:33;;;;;;;0.40;0.40;;;;;;;7.68;100.00;100274.91;10375199;28;20323;-81
2023/03/26 10:36:33;;;;;;;0.60;0.60;;;;;;;7.73;100.00;100289.69;10390353;28;20033;-81
2023/03/26 10:41:34;;;;;;;1.80;1.73;;;;;;;7.78;100.00;100292.63;10389818;28;20278;-81
2023/03/26 10:46:46;;;;;;;4.20;3.03;;;;;;;7.93;100.00;100287.97;10375407;28;20025;-81
2023/03/26 10:51:52;;;;;;;1.17;1.17;;;;;;;8.08;100.00;100301.38;10374383;28;20112;-81
2023/03/26 10:56:53;;;;;;;0.45;0.45;;;;;;;8.04;100.00;100313.56;10373483;28;20393;-82
2023/03/26 11:02:03;;;;;;;4.78;2.63;;;;;;;8.02;100.00;100315.66;10390506;28;20038;-82
2023/03/26 11:07:15;;;;;;;0.43;0.43;;;;;;;7.79;100.00;100326.66;10390237;28;20377;-82
2023/03/26 11:12:30;;;;;;;0.40;0.40;;;;;;;7.59;100.00;100329.97;10372621;28;20500;-82
2023/03/26 11:17:55;;;;;;;0.60;0.60;;;;;;;7.60;100.00;100338.91;10390010;28;20057;-82
2023/03/26 11:23:35;;;;;;;0.40;0.40;;;;;;;7.59;100.00;100342.59;10376391;28;20065;-82
2023/03/26 11:28:49;;;;;;;0.80;0.80;;;;;;;7.90;100.00;100345.00;10365685;28;20142;-83
2023/03/26 11:33:51;;;;;;;1.77;1.77;;;;;;;8.10;100.00;100350.53;10374916;28;20117;-82
2023/03/26 11:38:52;;;;;;;0.32;0.32;;;;;;;7.98;100.00;100346.72;10403016;28;20061;-82
2023/03/26 11:43:56;;;;;;;0.40;0.40;;;;;;;7.83;100.00;100366.50;10374069;28;20381;-83
2023/03/26 11:49:01;;;;;;;2.40;2.25;;;;;;;7.87;100.00;100373.16;10377068;28;20362;-83
2023/03/26 11:54:03;;;;;;;0.30;0.30;;;;;;;7.95;100.00;100376.78;10375192;28;20038;-82
2023/03/26 11:59:12;;;;;;;0.35;0.35;;;;;;;7.78;100.00;100393.19;10380060;28;20105;-83
2023/03/26 12:04:14;;;;;;;10.52;3.75;;;;;;;7.82;100.00;100393.66;10399770;28;20419;-83
2023/03/26 12:09:18;;;;;;;3.20;2.70;;;;;;;7.87;100.00;100397.41;10386948;28;20045;-83
2023/03/26 12:14:24;;;;;;;0.55;0.55;;;;;;;8.18;100.00;100392.75;10381227;28;20034;-82
2023/03/26 12:19:27;;;;;;;0.40;0.40;;;;;;;8.46;100.00;100400.91;10395534;28;20437;-81
2023/03/26 12:24:29;;;;;;;0.73;0.73;;;;;;;8.88;100.00;100399.94;10380553;28;20034;-82
2023/03/26 12:29:33;;;;;;;0.40;0.40;;;;;;;8.77;100.00;100406.69;10381380;28;20030;-83
2023/03/26 12:34:34;;;;;;;0.40;0.40;;;;;;;8.85;100.00;100416.53;10396161;28;20064;-84
2023/03/26 12:39:39;;;;;;;1.10;1.10;;;;;;;9.24;100.00;100423.19;10397609;28;20359;-85
2023/03/26 12:44:44;;;;;;;11.07;3.03;;;;;;;9.26;100.00;100432.75;10400822;28;20038;-84
2023/03/26 12:49:45;;;;;;;0.50;0.50;;;;;;;9.16;100.00;100436.88;10379718;28;20042;-80
2023/03/26 12:54:48;;;;;;;0.30;0.30;;;;;;;9.03;100.00;100441.16;10377604;28;20049;-79
2023/03/26 13:00:05;;;;;;;0.50;0.50;;;;;;;9.32;100.00;100448.16;10377937;28;20061;-79
2023/03/26 13:05:12;;;;;;;0.45;0.45;;;;;;;9.59;100.00;100444.75;10379769;28;20038;-79
2023/03/26 13:10:33;;;;;;;1.48;1.48;;;;;;;9.66;100.00;100453.69;10379251;28;20053;-78
2023/03/26 13:15:56;;;;;;;12.95;4.10;;;;;;;9.73;100.00;100459.97;10379119;28;20038;-79
2023/03/26 13:21:09;;;;;;;17.88;4.50;;;;;;;9.95;100.00;100453.38;10377602;28;20187;-80
2023/03/26 13:26:45;;;;;;;15.35;4.20;;;;;;;10.63;100.00;100464.13;10377487;28;20382;-79
2023/03/26 13:32:07;;;;;;;9.18;3.35;;;;;;;10.83;100.00;100465.97;10349921;28;20046;-79
2023/03/26 13:37:15;;;;;;;10.23;4.10;;;;;;;11.31;100.00;100474.63;10392886;28;20373;-80
2023/03/26 13:42:46;;;;;;;8.48;3.92;;;;;;;11.09;100.00;100486.78;10391938;28;20389;-77
2023/03/26 13:47:48;;;;;;;7.80;3.75;;;;;;;10.76;100.00;100487.66;10389861;28;20497;-77
2023/03/26 13:52:59;;;;;;;15.63;2.45;;;;;;;10.76;100.00;100498.47;10393260;28;20117;-79
2023/03/26 13:58:10;;;;;;;12.35;3.05;;;;;;;11.53;100.00;100499.59;10391126;28;20082;-77
2023/03/26 14:03:44;;;;;;;10.50;2.65;;;;;;;12.25;100.00;100494.91;10373431;28;20036;-79
2023/03/26 14:08:46;;;;;;;7.82;2.95;;;;;;;11.71;100.00;100509.78;10388243;28;20025;-80
2023/03/26 14:13:50;;;;;;;6.22;2.70;;;;;;;11.02;100.00;100507.63;10390290;28;20037;-81
2023/03/26 14:19:12;;;;;;;3.22;2.78;;;;;;;10.53;100.00;100535.94;10374711;28;20034;-79
2023/03/26 14:24:31;;;;;;;9.20;3.58;;;;;;;10.25;100.00;100539.63;10374461;28;20060;-77
2023/03/26 14:30:05;;;;;;;22.63;3.55;;;;;;;10.35;100.00;100539.25;10375413;28;20041;-79
2023/03/26 14:35:05;;;;;;;5.97;2.25;;;;;;;10.20;100.00;100542.91;10373092;28;20528;-78
2023/03/26 14:40:14;;;;;;;11.43;3.20;;;;;;;9.94;100.00;100559.91;10375617;28;20037;-77
2023/03/26 14:45:32;;;;;;;6.38;3.17;;;;;;;9.79;100.00;100564.59;10374898;28;20309;-77
2023/03/26 14:50:53;;;;;;;5.07;2.25;;;;;;;9.76;100.00;100567.72;10390043;28;20100;-77
2023/03/26 14:55:53;;;;;;;2.97;2.50;;;;;;;9.67;100.00;100579.75;10390113;28;20468;-76
2023/03/26 15:01:28;;;;;;;4.90;2.67;;;;;;;9.58;100.00;100595.28;10373024;28;20113;-77
2023/03/26 15:06:47;;;;;;;6.72;2.88;;;;;;;9.58;100.00;100613.38;10389784;28;20069;-76
2023/03/26 15:11:50;;;;;;;5.72;2.35;;;;;;;9.50;100.00;100623.28;10373901;28;20037;-76
2023/03/26 15:17:17;;;;;;;3.95;2.08;;;;;;;9.23;100.00;100633.09;10373641;28;20038;-76
2023/03/26 15:22:40;;;;;;;5.10;3.38;;;;;;;9.08;100.00;100646.66;10372928;28;20046;-76
2023/03/26 15:27:56;;;;;;;7.43;3.00;;;;;;;9.03;100.00;100664.47;10374752;28;20117;-77
2023/03/26 15:33:21;;;;;;;15.32;3.58;;;;;;;9.01;100.00;100667.38;10389692;28;20195;-76
2023/03/26 15:38:30;;;;;;;5.53;3.28;;;;;;;8.96;100.00;100669.81;10374401;28;20084;-76
2023/03/26 15:43:57;;;;;;;13.68;3.20;;;;;;;8.83;100.00;100673.22;10372770;28;20084;-77
2023/03/26 15:49:13;;;;;;;8.13;2.17;;;;;;;8.91;100.00;100696.56;10380552;28;20118;-76
2023/03/26 15:54:36;;;;;;;6.53;2.53;;;;;;;8.71;100.00;100706.28;10381641;28;20033;-77
2023/03/26 15:59:48;;;;;;;16.27;3.85;;;;;;;8.69;100.00;100716.47;10393159;28;20042;-76
2023/03/26 16:04:52;;;;;;;8.65;3.47;;;;;;;8.82;100.00;100730.13;10397210;28;20111;-77
2023/03/26 16:10:12;;;;;;;5.47;3.00;;;;;;;8.97;100.00;100732.78;10396640;28;20052;-76
2023/03/26 16:15:23;;;;;;;9.35;3.00;;;;;;;8.90;100.00;100757.00;10380241;28;20426;-77
2023/03/26 16:20:32;;;;;;;12.52;2.80;;;;;;;8.89;100.00;100768.81;10395402;28;20182;-76
2023/03/26 16:25:34;;;;;;;10.70;3.25;;;;;;;8.84;100.00;100765.88;10379907;28;20104;-77
2023/03/26 16:30:35;;;;;;;5.57;2.45;;;;;;;8.53;100.00;100780.44;10395003;28;20033;-76
2023/03/26 16:35:41;;;;;;;9.18;3.42;;;;;;;8.32;100.00;100804.56;10362112;28;20440;-77
2023/03/26 16:40:58;;;;;;;9.95;2.90;;;;;;;8.23;100.00;100808.38;10378643;28;20458;-77
2023/03/26 16:46:13;;;;;;;;;;;;;;;8.24;100.00;100827.09;10394406;28;20489;-78
2023/03/26 16:51:34;;;;;;;14.02;3.20;;;;;;;8.03;100.00;100835.88;10378832;28;19909;-78
2023/03/26 16:57:05;;;;;;;5.47;2.22;;;;;;;7.99;100.00;100839.13;10377030;28;20483;-77
2023/03/26 17:02:18;;;;;;;10.98;3.67;;;;;;;7.77;100.00;100857.84;10379154;28;20390;-77
2023/03/26 17:07:31;;;;;;;5.47;3.15;;;;;;;7.52;100.00;100873.34;10379149;28;20029;-77
2023/03/26 17:12:50;;;;;;;13.10;2.40;;;;;;;7.35;100.00;100896.03;10392396;28;20034;-77
2023/03/26 17:18:28;;;;;;;4.88;2.28;;;;;;;7.07;100.00;100901.84;10378414;28;20030;-77
2023/03/26 17:24:06;;;;;;;16.38;3.30;;;;;;;6.98;100.00;100913.66;10376793;28;20046;-77
2023/03/26 17:29:21;;;;;;;9.88;3.00;;;;;;;6.86;100.00;100915.06;10377358;28;20046;-77
2023/03/26 17:34:38;;;;;;;7.90;2.65;;;;;;;6.77;100.00;100940.34;10377963;28;20033;-77
2023/03/26 17:39:39;;;;;;;2.88;2.30;;;;;;;6.49;100.00;100946.09;10377215;28;20476;-77
2023/03/26 17:44:40;;;;;;;9.80;2.30;;;;;;;6.46;100.00;100949.13;10377438;28;20034;-77
2023/03/26 17:49:40;;;;;;;2.83;1.80;;;;;;;6.41;100.00;100973.81;10375472;28;20763;-77
2023/03/26 17:54:43;;;;;;;9.73;3.15;;;;;;;6.42;100.00;100993.50;10391783;28;20056;-77
2023/03/26 17:59:43;;;;;;;14.88;3.45;;;;;;;6.45;100.00;101006.63;10375272;28;20029;-76
2023/03/26 18:04:46;;;;;;;5.32;3.10;;;;;;;6.27;100.00;101004.09;10377590;28;20551;-77
2023/03/26 18:10:21;;;;;;;3.22;2.05;;;;;;;6.06;100.00;101031.44;10375985;28;20045;-77
2023/03/26 18:15:40;;;;;;;9.63;3.75;;;;;;;6.01;100.00;101044.53;10389737;28;20034;-77
2023/03/26 18:20:45;;;;;;;9.50;3.25;;;;;;;6.04;100.00;101054.97;10376775;28;20054;-77
2023/03/26 18:25:56;;;;;;;12.57;3.10;;;;;;;6.09;100.00;101073.28;10391963;28;20041;-77
2023/03/26 18:31:07;;;;;;;11.15;2.67;;;;;;;5.98;100.00;101080.66;10392077;28;20030;-77
2023/03/26 18:36:09;;;;;;;7.03;1.88;;;;;;;6.03;100.00;101089.09;10377319;28;20044;-77
2023/03/26 18:41:40;;;;;;;26.15;3.50;;;;;;;5.89;100.00;101099.56;10390422;28;20029;-77
2023/03/26 18:46:41;;;;;;;5.43;2.90;;;;;;;5.60;100.00;101117.75;10373585;28;20026;-78
2023/03/26 18:51:42;;;;;;;8.20;2.25;;;;;;;5.46;100.00;101121.03;10390866;28;20033;-78
2023/03/26 18:56:42;;;;;;;11.48;3.25;;;;;;;5.34;100.00;101144.63;10373381;28;20359;-78
2023/03/26 19:01:43;;;;;;;4.18;2.15;;;;;;;5.22;100.00;101151.22;10389686;28;20026;-77
2023/03/26 19:06:45;;;;;;;7.80;2.92;;;;;;;5.19;100.00;101156.06;10373385;28;20057;-77
2023/03/26 19:11:46;;;;;;;10.25;3.00;;;;;;;5.04;100.00;101169.19;10373197;28;20025;-77
2023/03/26 19:16:54;;;;;;;6.18;2.90;;;;;;;4.96;100.00;101161.94;10374107;28;20038;-77
2023/03/26 19:21:55;;;;;;;7.75;2.45;;;;;;;4.89;100.00;101172.44;10367490;28;20140;-77
2023/03/26 19:26:56;;;;;;;5.85;2.38;;;;;;;4.70;100.00;101193.22;10386441;28;20116;-77
2023/03/26 19:32:30;;;;;;;7.78;2.50;;;;;;;4.64;100.00;101197.34;10403136;28;20432;-77
2023/03/26 19:37:31;;;;;;;7.22;2.97;;;;;;;4.68;100.00;101193.34;10387771;28;20041;-77
2023/03/26 19:42:32;;;;;;;17.75;2.72;;;;;;;4.69;100.00;101204.94;10387353;28;20038;-78
2023/03/26 19:47:42;;;;;;;2.60;2.03;;;;;;;4.64;100.00;101210.75;10386478;28;20538;-77
2023/03/26 19:52:42;;;;;;;3.58;2.45;;;;;;;4.71;100.00;101209.16;10386689;28;20030;-78
2023/03/26 19:57:42;;;;;;;17.73;3.10;;;;;;;4.96;100.00;101223.66;10385377;28;20050;-78
2023/03/26 20:02:47;;;;;;;10.15;3.05;;;;;;;5.08;100.00;101232.34;10369641;28;20042;-77
2023/03/26 20:07:49;;;;;;;12.80;2.58;;;;;;;5.13;100.00;101243.44;10388374;28;20480;-77
2023/03/26 20:12:49;;;;;;;11.68;3.45;;;;;;;4.98;100.00;101253.00;10386350;28;20069;-77
2023/03/26 20:17:53;;;;;;;7.10;2.67;;;;;;;5.13;100.00;101270.28;10385784;28;20069;-77
2023/03/26 20:22:53;;;;;;;5.07;2.58;;;;;;;5.27;100.00;101275.13;10385748;28;20143;-78
2023/03/26 20:27:54;;;;;;;6.40;2.88;;;;;;;5.38;100.00;101289.31;10385947;28;20113;-77
2023/03/26 20:32:54;;;;;;;4.75;2.75;;;;;;;5.41;100.00;101300.59;10380455;28;20367;-77
2023/03/26 20:37:55;;;;;;;5.47;2.88;;;;;;;5.42;100.00;101298.75;10381328;28;20041;-76
2023/03/26 20:42:55;;;;;;;5.60;2.40;;;;;;;5.47;100.00;101307.19;10380916;28;20042;-84
2023/03/26 20:47:56;;;;;;;4.82;2.47;;;;;;;5.53;100.00;101306.59;10380567;28;20041;-78
2023/03/26 20:52:58;;;;;;;6.43;2.35;;;;;;;5.60;100.00;101329.13;10378454;28;20033;-75
2023/03/26 20:57:59;;;;;;;5.45;2.92;;;;;;;5.56;100.00;101333.13;10394140;28;20080;-76
2023/03/26 21:03:00;;;;;;;5.45;2.58;;;;;;;5.59;100.00;101340.88;10380102;28;20117;-76
2023/03/26 21:08:01;;;;;;;10.38;2.67;;;;;;;5.63;100.00;101349.47;10394761;28;20042;-77
2023/03/26 21:13:13;;;;;;;14.52;3.53;;;;;;;5.58;100.00;101358.84;10396223;28;20446;-77
2023/03/26 21:18:14;;;;;;;5.78;2.20;;;;;;;5.55;100.00;101358.28;10377492;28;20108;-75
2023/03/26 21:23:19;;;;;;;8.40;3.63;;;;;;;5.50;100.00;101371.34;10377560;28;20409;-75
2023/03/26 21:28:31;;;;;;;23.38;4.47;;;;;;;5.39;100.00;101377.78;10377955;28;20022;-79
2023/03/26 21:33:32;;;;;;;7.65;2.90;;;;;;;5.35;100.00;101379.94;10392555;28;20463;-76
2023/03/26 21:38:33;;;;;;;6.20;1.90;;;;;;;5.39;100.00;101385.84;10376234;28;20034;-78
2023/03/26 21:43:33;;;;;;;9.10;2.05;;;;;;;5.32;100.00;101396.34;10376569;28;20030;-75
2023/03/26 21:48:34;;;;;;;5.95;1.98;;;;;;;5.28;100.00;101412.91;10376634;28;20051;-76
2023/03/26 21:53:35;;;;;;;11.90;2.72;;;;;;;5.22;100.00;101418.88;10391564;28;20378;-77
2023/03/26 21:58:44;;;;;;;6.22;2.25;;;;;;;5.10;100.00;101423.59;10375936;28;20045;-77
2023/03/26 22:03:54;;;;;;;6.22;2.60;;;;;;;5.07;100.00;101426.59;10391044;28;20108;-77
2023/03/26 22:08:54;;;;;;;8.30;2.28;;;;;;;5.07;100.00;101437.31;10376343;28;20125;-77
2023/03/26 22:13:55;;;;;;;6.38;1.98;;;;;;;5.09;100.00;101448.75;10376116;28;20049;-77
2023/03/26 22:18:56;;;;;;;3.47;1.85;;;;;;;5.05;100.00;101448.22;10375916;28;20034;-77
2023/03/26 22:23:56;;;;;;;7.20;2.05;;;;;;;4.99;100.00;101459.53;10391339;28;20068;-77
2023/03/26 22:28:56;;;;;;;5.32;2.28;;;;;;;5.06;100.00;101471.38;10375680;28;20040;-77
2023/03/26 22:33:57;;;;;;;2.20;1.90;;;;;;;5.09;100.00;101475.59;10373516;28;20052;-77
2023/03/26 22:38:57;;;;;;;9.73;3.05;;;;;;;5.10;100.00;101483.50;10373499;28;20034;-77
2023/03/26 22:43:59;;;;;;;7.22;2.33;;;;;;;5.17;100.00;101494.53;10391040;28;20124;-77
2023/03/26 22:49:00;;;;;;;7.15;2.20;;;;;;;5.19;100.00;101491.66;10393389;28;20114;-77
2023/03/26 22:54:01;;;;;;;12.55;2.22;;;;;;;5.22;100.00;101502.13;10375103;28;20066;-77
2023/03/26 22:59:02;;;;;;;3.63;2.08;;;;;;;5.22;100.00;101502.97;10391494;28;20033;-77
2023/03/26 23:04:03;;;;;;;2.40;2.00;;;;;;;5.23;100.00;101518.09;10373452;28;20057;-77
2023/03/26 23:09:05;;;;;;;8.73;2.30;;;;;;;5.24;100.00;101535.06;10375007;28;20029;-77
2023/03/26 23:14:06;;;;;;;8.02;2.53;;;;;;;5.08;100.00;101539.19;10374338;28;20042;-77
2023/03/26 23:19:06;;;;;;;2.05;1.90;;;;;;;4.89;100.00;101550.81;10390461;28;20037;-78
2023/03/26 23:24:07;;;;;;;12.40;1.65;;;;;;;4.68;100.00;101566.25;10374989;28;20444;-78